Time;durP1;ratioP1;P1;durP2;ratioP2;P2;SDS_P1;SDS_P2;PMS_P1;PMS_P2;Temp;Humidity;BMP_temperature;BMP_pressure;BME280_temperature;BME280_humidity;BME280_pressure;Samples;Min_cycle;Max_cycle;Signal;HPM_P1;HPM_P2
2022/03/10 00:00:10;;;;;;;13.48;8.30;;;;;;;-2.14;61.15;101501.42;1648373;85;20995;-66
2022/03/10 00:02:46;;;;;;;11.60;7.05;;;;;;;-2.14;61.10;101505.81;1642865;84;21086;-66
2022/03/10 00:05:15;;;;;;;11.88;7.42;;;;;;;-2.15;60.71;101514.16;1642462;84;21089;-65
2022/03/10 00:07:43;;;;;;;11.70;7.12;;;;;;;-2.19;60.32;101509.38;1635672;87;21262;-67
2022/03/10 00:10:09;;;;;;;12.35;7.10;;;;;;;-2.22;60.14;101514.42;1635509;87;21561;-66
2022/03/10 00:12:36;;;;;;;10.68;7.00;;;;;;;-2.27;60.06;101514.52;1634266;87;21084;-67
2022/03/10 00:15:11;;;;;;;9.93;6.90;;;;;;;-2.28;59.93;101518.13;1635610;87;21074;-67
2022/03/10 00:17:37;;;;;;;11.55;7.50;;;;;;;-2.29;59.79;101518.61;1635692;87;21476;-65
2022/03/10 00:20:06;;;;;;;10.95;7.30;;;;;;;-2.27;59.92;101522.38;1635599;87;21161;-66
2022/03/10 00:22:46;;;;;;;10.80;7.20;;;;;;;-2.25;60.01;101524.37;1639701;85;21000;-65
2022/03/10 00:25:13;;;;;;;13.03;7.60;;;;;;;-2.23;60.00;101521.13;1640567;86;21091;-66
2022/03/10 00:27:42;;;;;;;11.28;7.80;;;;;;;-2.21;59.94;101525.22;1643611;84;21111;-65
2022/03/10 00:30:10;;;;;;;11.93;7.37;;;;;;;-2.19;59.98;101525.91;1646790;84;21175;-66
2022/03/10 00:32:45;;;;;;;12.07;7.33;;;;;;;-2.16;60.06;101518.25;1642303;85;21185;-65
2022/03/10 00:35:19;;;;;;;11.03;7.70;;;;;;;-2.14;60.11;101521.05;1640806;86;21028;-66
2022/03/10 00:37:47;;;;;;;11.18;6.85;;;;;;;-2.12;60.08;101523.51;1645140;84;21537;-66
2022/03/10 00:40:16;;;;;;;12.45;7.75;;;;;;;-2.11;60.24;101521.22;1635689;87;21041;-66
2022/03/10 00:42:43;;;;;;;11.35;7.22;;;;;;;-2.14;60.18;101526.30;1637588;86;21058;-65
2022/03/10 00:45:12;;;;;;;11.20;7.37;;;;;;;-2.15;60.22;101521.19;1647231;84;21138;-65
2022/03/10 00:47:40;;;;;;;13.20;8.88;;;;;;;-2.17;60.34;101522.66;1648862;84;21296;-65
2022/03/10 00:50:08;;;;;;;12.33;7.62;;;;;;;-2.21;60.27;101521.30;1648235;86;21003;-65
2022/03/10 00:52:46;;;;;;;15.25;8.65;;;;;;;-2.25;60.32;101523.06;1647426;84;21528;-66
2022/03/10 00:55:15;;;;;;;11.38;7.33;;;;;;;-2.26;60.32;101524.05;1642269;84;21468;-67
2022/03/10 00:57:43;;;;;;;12.60;7.97;;;;;;;-2.23;60.24;101532.91;1648084;84;21239;-66
2022/03/10 01:00:11;;;;;;;12.63;7.42;;;;;;;-2.23;60.09;101527.67;1647900;84;21089;-66
2022/03/10 01:02:38;;;;;;;12.80;7.35;;;;;;;-2.26;59.83;101534.02;1648848;84;21023;-66
2022/03/10 01:05:07;;;;;;;12.47;8.03;;;;;;;-2.30;59.73;101535.30;1645043;84;21057;-66
2022/03/10 01:07:33;;;;;;;13.60;7.92;;;;;;;-2.36;59.77;101536.70;1635005;87;21088;-65
2022/03/10 01:10:05;;;;;;;13.25;7.42;;;;;;;-2.37;59.86;101535.52;1640501;85;21827;-66
2022/03/10 01:12:35;;;;;;;12.70;7.65;;;;;;;-2.40;59.75;101534.54;1635527;87;21038;-66
2022/03/10 01:15:03;;;;;;;14.15;8.85;;;;;;;-2.49;59.90;101532.31;1638663;85;21019;-67
2022/03/10 01:17:30;;;;;;;13.72;8.63;;;;;;;-2.57;59.89;101534.83;1646838;84;21071;-65
2022/03/10 01:19:58;;;;;;;13.28;8.73;;;;;;;-2.60;59.97;101537.73;1648397;84;21174;-66
2022/03/10 01:22:24;;;;;;;14.45;7.47;;;;;;;-2.65;59.83;101546.03;1650896;84;21830;-65
2022/03/10 01:24:51;;;;;;;13.85;7.60;;;;;;;-2.68;59.42;101547.62;1647648;84;21035;-66
2022/03/10 01:27:18;;;;;;;13.38;8.10;;;;;;;-2.76;58.91;101548.00;1650036;86;21052;-66
2022/03/10 01:29:44;;;;;;;14.33;8.08;;;;;;;-2.87;58.73;101555.07;1649048;84;21120;-66
2022/03/10 01:32:12;;;;;;;11.45;6.90;;;;;;;-2.88;58.92;101557.36;1647578;84;21109;-65
2022/03/10 01:34:40;;;;;;;12.73;7.58;;;;;;;-2.88;58.78;101557.84;1648254;84;21857;-66
2022/03/10 01:37:07;;;;;;;13.48;7.80;;;;;;;-2.91;58.64;101562.87;1652878;84;21553;-65
2022/03/10 01:39:35;;;;;;;13.00;7.85;;;;;;;-2.92;58.28;101568.25;1646430;85;21102;-66
2022/03/10 01:42:06;;;;;;;12.07;8.25;;;;;;;-3.01;58.10;101573.03;1647858;84;21070;-66
2022/03/10 01:44:30;;;;;;;12.33;7.67;;;;;;;-3.04;57.89;101570.21;1656036;85;21059;-66
2022/03/10 01:46:57;;;;;;;13.53;8.08;;;;;;;-3.08;57.68;101573.59;1652267;84;21271;-66
2022/03/10 01:49:24;;;;;;;13.25;7.95;;;;;;;-3.17;57.31;101590.12;1647484;84;21075;-66
2022/03/10 01:51:53;;;;;;;15.03;8.18;;;;;;;-3.28;57.57;101585.07;1646970;84;21094;-65
2022/03/10 01:54:20;;;;;;;13.72;8.03;;;;;;;-3.34;57.69;101588.24;1647791;86;21096;-65
2022/03/10 01:56:48;;;;;;;17.07;8.53;;;;;;;-3.41;57.55;101598.42;1650575;84;21105;-64
2022/03/10 01:59:15;;;;;;;13.90;7.92;;;;;;;-3.48;57.60;101601.27;1640011;85;21143;-67
2022/03/10 02:01:41;;;;;;;14.03;7.78;;;;;;;-3.47;57.51;101609.43;1645778;86;21134;-65
2022/03/10 02:04:08;;;;;;;13.25;8.30;;;;;;;-3.50;57.32;101608.89;1648060;84;21043;-66
2022/03/10 02:06:36;;;;;;;15.15;8.50;;;;;;;-3.55;57.37;101610.62;1646829;84;21185;-65
2022/03/10 02:11:51;;;;;;;14.47;8.25;;;;;;;-3.72;57.31;101626.47;1648122;84;21373;-67
2022/03/10 02:17:37;;;;;;;12.95;7.25;;;;;;;-3.90;57.27;101625.52;1662998;84;22359;-66
2022/03/10 02:19:40;;;;;;;12.93;7.83;;;;;;;-4.01;57.22;101640.34;1640662;84;21138;-65
2022/03/10 02:22:11;;;;;;;11.65;7.47;;;;;;;-4.12;57.25;101640.44;1647249;84;21074;-65
2022/03/10 02:24:43;;;;;;;13.43;7.97;;;;;;;-4.20;57.26;101641.60;1650323;84;21125;-66
2022/03/10 02:27:27;;;;;;;12.50;7.35;;;;;;;-4.27;57.54;101651.74;1647210;84;21573;-66
2022/03/10 02:29:57;;;;;;;11.93;6.78;;;;;;;-4.33;57.64;101652.27;1635777;87;21128;-66
2022/03/10 02:32:24;;;;;;;12.63;7.12;;;;;;;-4.39;57.71;101658.02;1643778;86;21068;-66
2022/03/10 02:34:51;;;;;;;11.22;6.95;;;;;;;-4.42;57.77;101660.88;1649135;86;21073;-66
2022/03/10 02:37:18;;;;;;;12.40;7.25;;;;;;;-4.46;57.82;101668.63;1635837;87;21187;-65
2022/03/10 02:39:46;;;;;;;12.68;6.80;;;;;;;-4.50;57.84;101672.46;1635754;87;21544;-67
2022/03/10 02:42:13;;;;;;;11.48;7.00;;;;;;;-4.57;57.79;101673.95;1653117;85;21395;-65
2022/03/10 02:44:47;;;;;;;12.60;6.67;;;;;;;-4.62;57.88;101682.14;1647949;84;21542;-66
2022/03/10 02:47:14;;;;;;;10.40;5.92;;;;;;;-4.64;57.95;101686.67;1647743;84;21149;-65
2022/03/10 02:49:43;;;;;;;9.95;6.15;;;;;;;-4.69;57.94;101684.10;1647984;84;21221;-67
2022/03/10 02:52:10;;;;;;;10.80;6.40;;;;;;;-4.74;57.91;101685.77;1637009;86;21117;-67
2022/03/10 02:54:37;;;;;;;11.22;6.15;;;;;;;-4.81;57.93;101691.16;1644530;86;22111;-65
2022/03/10 02:57:05;;;;;;;11.15;5.90;;;;;;;-4.82;58.04;101705.16;1648615;84;21063;-66
2022/03/10 02:59:32;;;;;;;11.63;6.35;;;;;;;-4.91;57.93;101700.70;1647841;84;21086;-65
2022/03/10 03:01:59;;;;;;;12.15;6.80;;;;;;;-4.95;58.22;101707.47;1646984;84;21083;-66
2022/03/10 03:04:26;;;;;;;11.20;6.47;;;;;;;-4.98;58.29;101711.63;1653772;84;21606;-66
2022/03/10 03:06:53;;;;;;;11.33;6.65;;;;;;;-5.01;58.32;101705.84;1647383;84;21134;-65
2022/03/10 03:09:22;;;;;;;11.95;6.28;;;;;;;-5.03;58.43;101710.38;1651763;84;21087;-66
2022/03/10 03:11:48;;;;;;;13.90;7.28;;;;;;;-5.05;58.54;101714.40;1648995;85;21567;-65
2022/03/10 03:14:15;;;;;;;16.50;7.60;;;;;;;-5.06;58.62;101716.66;1648384;84;21780;-66
2022/03/10 03:16:43;;;;;;;11.57;6.70;;;;;;;-5.10;58.75;101724.39;1647198;84;21093;-65
2022/03/10 03:19:11;;;;;;;10.45;6.12;;;;;;;-5.13;58.79;101726.39;1645434;84;21013;-66
2022/03/10 03:21:38;;;;;;;11.05;6.00;;;;;;;-5.16;58.87;101730.58;1635745;87;21094;-66
2022/03/10 03:24:06;;;;;;;11.30;6.20;;;;;;;-5.16;58.88;101735.30;1635298;87;21168;-66
2022/03/10 03:26:34;;;;;;;12.45;7.03;;;;;;;-5.18;58.99;101729.38;1634626;87;21189;-66
2022/03/10 03:29:01;;;;;;;11.03;6.65;;;;;;;-5.26;58.84;101740.44;1648672;84;21552;-65
2022/03/10 03:31:28;;;;;;;13.03;6.28;;;;;;;-5.30;58.80;101752.02;1640615;86;21049;-68
2022/03/10 03:33:56;;;;;;;13.72;7.05;;;;;;;-5.32;58.79;101754.42;1608060;87;21521;-65
2022/03/10 03:36:24;;;;;;;15.98;7.05;;;;;;;-5.37;58.71;101754.78;1634487;87;21686;-65
2022/03/10 03:38:51;;;;;;;13.65;7.22;;;;;;;-5.42;58.70;101758.24;1634352;87;22099;-65
2022/03/10 03:41:18;;;;;;;13.15;7.30;;;;;;;-5.48;58.50;101757.43;1666054;85;21077;-65
2022/03/10 03:43:45;;;;;;;11.45;6.55;;;;;;;-5.52;58.20;101768.56;1668088;86;21062;-65
2022/03/10 03:46:12;;;;;;;11.28;6.30;;;;;;;-5.54;58.03;101766.55;1667829;85;21126;-65
2022/03/10 03:48:39;;;;;;;10.65;5.92;;;;;;;-5.56;57.92;101769.77;1668076;85;21032;-65
2022/03/10 03:51:06;;;;;;;13.83;6.78;;;;;;;-5.59;57.76;101776.52;1667763;85;21490;-65
2022/03/10 03:53:33;;;;;;;13.22;6.67;;;;;;;-5.61;57.75;101773.19;1668126;85;21075;-66
2022/03/10 03:56:01;;;;;;;11.75;6.00;;;;;;;-5.62;57.69;101779.36;1667747;85;21043;-66
2022/03/10 03:58:28;;;;;;;9.10;5.65;;;;;;;-5.63;57.66;101775.55;1668123;86;21044;-65
2022/03/10 04:00:55;;;;;;;10.03;6.30;;;;;;;-5.64;57.72;101776.03;1666981;85;21141;-64
2022/03/10 04:03:22;;;;;;;11.53;6.25;;;;;;;-5.66;57.79;101769.66;1668045;85;21146;-65
2022/03/10 04:05:49;;;;;;;10.80;5.90;;;;;;;-5.64;57.85;101782.55;1658491;84;21482;-65
2022/03/10 04:08:16;;;;;;;11.08;6.05;;;;;;;-5.65;57.91;101783.50;1647758;84;21473;-64
2022/03/10 04:10:42;;;;;;;9.25;4.55;;;;;;;-5.65;57.97;101783.50;1648283;86;21047;-64
2022/03/10 04:13:09;;;;;;;9.40;5.00;;;;;;;-5.63;57.97;101783.36;1647827;84;21084;-64
2022/03/10 04:15:36;;;;;;;12.58;6.17;;;;;;;-5.66;58.03;101787.03;1647685;86;20975;-65
2022/03/10 04:18:03;;;;;;;12.58;5.95;;;;;;;-5.68;58.09;101788.47;1650667;84;21121;-67
2022/03/10 04:20:29;;;;;;;10.70;5.83;;;;;;;-5.71;58.15;101793.09;1649914;85;21228;-66
2022/03/10 04:22:57;;;;;;;10.35;6.17;;;;;;;-5.72;58.18;101795.34;1668236;86;21071;-66
2022/03/10 04:25:24;;;;;;;10.53;6.05;;;;;;;-5.74;58.24;101797.23;1667737;85;21189;-66
2022/03/10 04:27:53;;;;;;;12.58;6.65;;;;;;;-5.75;58.24;101802.91;1654145;85;21243;-65
2022/03/10 04:30:23;;;;;;;10.50;5.85;;;;;;;-5.76;58.23;101808.22;1639146;86;21028;-65
2022/03/10 04:32:50;;;;;;;12.93;6.97;;;;;;;-5.78;58.21;101807.53;1641828;84;21008;-66
2022/03/10 04:35:19;;;;;;;10.28;5.67;;;;;;;-5.78;58.25;101817.46;1646045;84;21178;-65
2022/03/10 04:37:49;;;;;;;10.85;6.22;;;;;;;-5.80;58.19;101809.41;1646986;86;21659;-66
2022/03/10 04:40:15;;;;;;;12.98;6.75;;;;;;;-5.79;58.23;101819.72;1647759;84;21787;-66
2022/03/10 04:42:43;;;;;;;11.93;6.70;;;;;;;-5.80;58.21;101821.13;1648295;84;21047;-65
2022/03/10 04:45:10;;;;;;;11.05;6.37;;;;;;;-5.75;58.16;101826.81;1647368;84;21165;-64
2022/03/10 04:47:37;;;;;;;11.55;6.33;;;;;;;-5.75;58.08;101825.03;1647828;84;21043;-65
2022/03/10 04:50:06;;;;;;;11.57;6.78;;;;;;;-5.78;57.95;101825.27;1649893;84;21050;-66
2022/03/10 04:52:34;;;;;;;12.75;5.65;;;;;;;-5.75;57.96;101834.62;1646254;86;21147;-65
2022/03/10 04:55:03;;;;;;;9.05;5.58;;;;;;;-5.76;57.93;101831.19;1646814;84;21082;-65
2022/03/10 04:57:30;;;;;;;10.08;5.40;;;;;;;-5.72;57.87;101833.91;1650834;84;21475;-66
2022/03/10 04:59:57;;;;;;;11.78;5.90;;;;;;;-5.68;57.73;101839.70;1647520;86;21034;-66
2022/03/10 05:02:23;;;;;;;10.75;6.05;;;;;;;-5.64;57.71;101842.88;1646962;84;21160;-66
2022/03/10 05:04:51;;;;;;;8.90;5.12;;;;;;;-5.61;57.57;101843.47;1649302;84;21170;-67
2022/03/10 05:07:18;;;;;;;10.93;5.65;;;;;;;-5.59;57.51;101837.68;1646999;85;21633;-66
2022/03/10 05:09:46;;;;;;;13.70;6.95;;;;;;;-5.56;57.61;101845.70;1651207;84;21039;-66
2022/03/10 05:12:13;;;;;;;9.75;5.62;;;;;;;-5.51;57.59;101842.28;1646763;84;20915;-66
2022/03/10 05:14:39;;;;;;;11.80;5.05;;;;;;;-5.43;57.60;101853.76;1647957;84;21712;-66
2022/03/10 05:17:06;;;;;;;11.73;6.12;;;;;;;-5.38;57.38;101853.38;1647104;84;21356;-65
2022/03/10 05:19:33;;;;;;;12.55;5.75;;;;;;;-5.31;57.33;101858.94;1649290;84;21285;-66
2022/03/10 05:22:03;;;;;;;10.60;6.42;;;;;;;-5.24;57.22;101870.03;1645782;84;21100;-66
2022/03/10 05:24:30;;;;;;;10.70;5.45;;;;;;;-5.22;56.76;101856.91;1635780;87;21033;-66
2022/03/10 05:26:58;;;;;;;11.03;5.37;;;;;;;-5.16;56.64;101859.52;1635943;86;21613;-64
2022/03/10 05:29:25;;;;;;;12.58;6.35;;;;;;;-5.10;56.43;101858.99;1652102;84;21207;-64
2022/03/10 05:31:53;;;;;;;8.98;5.47;;;;;;;-5.03;56.39;101859.70;1648660;84;21059;-65
2022/03/10 05:34:19;;;;;;;10.08;5.30;;;;;;;-4.97;56.17;101860.52;1648737;85;21070;-65
2022/03/10 05:36:46;;;;;;;9.98;4.95;;;;;;;-4.89;56.00;101872.09;1635563;86;21029;-66
2022/03/10 05:39:14;;;;;;;10.25;5.40;;;;;;;-4.87;55.83;101861.05;1648138;84;21108;-66
2022/03/10 05:41:43;;;;;;;12.10;5.50;;;;;;;-4.84;55.51;101874.66;1647054;84;21263;-66
2022/03/10 05:44:10;;;;;;;9.48;4.50;;;;;;;-4.80;55.60;101872.66;1647953;85;20980;-68
2022/03/10 05:46:37;;;;;;;9.45;5.72;;;;;;;-4.74;55.33;101869.09;1647148;84;21105;-64
2022/03/10 05:49:03;;;;;;;10.45;5.50;;;;;;;-4.74;55.05;101875.60;1639980;86;21166;-65
2022/03/10 05:51:31;;;;;;;8.98;5.47;;;;;;;-4.72;54.90;101876.28;1638481;86;21066;-66
2022/03/10 05:53:58;;;;;;;9.28;5.47;;;;;;;-4.67;54.74;101881.14;1638052;86;21252;-66
2022/03/10 05:56:24;;;;;;;8.80;4.90;;;;;;;-4.57;54.67;101885.95;1638492;87;21052;-65
2022/03/10 05:58:51;;;;;;;11.53;5.72;;;;;;;-4.50;54.40;101883.19;1640530;85;21116;-66
2022/03/10 06:01:18;;;;;;;10.20;4.83;;;;;;;-4.40;54.38;101883.27;1639451;87;21134;-65
2022/03/10 06:03:46;;;;;;;9.10;5.62;;;;;;;-4.36;53.91;101889.88;1639504;86;21039;-65
2022/03/10 06:06:13;;;;;;;9.18;5.47;;;;;;;-4.34;53.66;101890.59;1641462;84;21158;-66
2022/03/10 06:08:41;;;;;;;10.05;4.65;;;;;;;-4.26;53.56;101889.95;1639606;86;21003;-64
2022/03/10 06:11:07;;;;;;;8.75;5.33;;;;;;;-4.17;52.68;101895.70;1648203;85;21189;-65
2022/03/10 06:13:35;;;;;;;11.03;4.72;;;;;;;-4.12;52.42;101890.92;1646869;84;21569;-66
2022/03/10 06:16:04;;;;;;;8.28;5.20;;;;;;;-4.09;52.15;101899.80;1649110;84;21574;-66
2022/03/10 06:18:31;;;;;;;8.83;5.15;;;;;;;-4.06;52.16;101892.20;1646878;84;21293;-67
2022/03/10 06:20:58;;;;;;;13.30;5.55;;;;;;;-4.06;51.85;101891.71;1646989;84;21066;-67
2022/03/10 06:23:25;;;;;;;9.40;5.28;;;;;;;-4.02;51.82;101894.89;1650608;84;21047;-66
2022/03/10 06:25:52;;;;;;;9.18;5.37;;;;;;;-4.00;51.79;101894.30;1647922;84;20996;-67
2022/03/10 06:28:22;;;;;;;8.50;4.95;;;;;;;-3.98;51.75;101900.67;1646893;84;21103;-66
2022/03/10 06:30:48;;;;;;;9.15;5.12;;;;;;;-3.89;52.08;101899.91;1647489;84;21145;-67
2022/03/10 06:33:15;;;;;;;8.30;5.03;;;;;;;-3.83;51.73;101896.78;1642507;84;21041;-67
2022/03/10 06:35:42;;;;;;;10.98;5.33;;;;;;;-3.80;51.27;101894.74;1635618;87;21085;-66
2022/03/10 06:38:08;;;;;;;10.48;4.72;;;;;;;-3.74;51.02;101894.70;1652882;85;21228;-65
2022/03/10 06:40:36;;;;;;;8.90;5.30;;;;;;;-3.71;50.80;101898.37;1646463;84;21106;-66
2022/03/10 06:43:03;;;;;;;8.93;4.95;;;;;;;-3.73;50.72;101895.53;1636267;86;21763;-65
2022/03/10 06:45:31;;;;;;;9.53;5.10;;;;;;;-3.77;51.22;101899.70;1648457;84;21011;-66
2022/03/10 06:47:58;;;;;;;9.10;4.50;;;;;;;-3.75;51.27;101907.42;1648213;84;21114;-66
2022/03/10 06:50:27;;;;;;;10.18;5.70;;;;;;;-3.70;50.99;101900.02;1653160;84;21332;-66
2022/03/10 06:52:58;;;;;;;9.30;4.87;;;;;;;-3.56;51.05;101902.27;1647735;84;21055;-66
2022/03/10 06:55:25;;;;;;;9.45;5.30;;;;;;;-3.36;50.73;101911.48;1649849;84;21114;-66
2022/03/10 06:57:54;;;;;;;9.00;4.60;;;;;;;-3.20;49.93;101907.89;1646560;84;21249;-67
2022/03/10 07:00:22;;;;;;;8.58;4.70;;;;;;;-3.08;49.36;101900.29;1651366;84;21138;-66
2022/03/10 07:02:50;;;;;;;9.45;4.65;;;;;;;-2.98;48.47;101908.64;1649227;84;21510;-68
2022/03/10 07:05:17;;;;;;;8.13;4.55;;;;;;;-2.96;47.76;101893.63;1647335;84;21039;-66
2022/03/10 07:07:44;;;;;;;8.53;4.70;;;;;;;-2.97;46.93;101912.41;1646502;84;21203;-66
2022/03/10 07:10:12;;;;;;;9.20;4.30;;;;;;;-2.98;47.16;101904.72;1646990;84;20991;-67
2022/03/10 07:12:41;;;;;;;8.53;4.70;;;;;;;-3.11;46.69;101908.88;1648458;84;21085;-67
2022/03/10 07:15:11;;;;;;;8.50;4.65;;;;;;;-3.12;46.90;101914.59;1648501;84;21079;-66
2022/03/10 07:17:40;;;;;;;8.75;4.72;;;;;;;-3.06;47.31;101918.44;1646090;85;20974;-67
2022/03/10 07:20:14;;;;;;;8.13;4.40;;;;;;;-3.03;47.10;101905.09;1640910;86;21610;-66
2022/03/10 07:22:41;;;;;;;8.15;4.60;;;;;;;-3.00;46.26;101911.85;1641987;86;21035;-66
2022/03/10 07:25:09;;;;;;;7.97;4.50;;;;;;;-2.97;45.67;101905.88;1646337;86;21150;-65
2022/03/10 07:27:37;;;;;;;8.40;4.55;;;;;;;-2.96;44.83;101910.16;1647920;84;21150;-68
2022/03/10 07:30:07;;;;;;;9.50;4.25;;;;;;;-2.96;44.71;101914.08;1646976;84;21145;-68
2022/03/10 07:32:35;;;;;;;8.45;4.80;;;;;;;-2.94;45.03;101910.01;1635700;87;21108;-66
2022/03/10 07:35:02;;;;;;;7.65;4.37;;;;;;;-2.90;44.61;101917.92;1637459;86;21676;-67
2022/03/10 07:37:29;;;;;;;7.40;4.17;;;;;;;-2.82;44.77;101908.94;1639635;86;21023;-67
2022/03/10 07:39:56;;;;;;;9.18;4.83;;;;;;;-2.78;43.88;101907.70;1640783;86;21047;-67
2022/03/10 07:42:25;;;;;;;9.13;4.85;;;;;;;-2.79;43.80;101900.82;1620329;87;21050;-66
2022/03/10 07:44:53;;;;;;;7.50;3.70;;;;;;;-2.73;43.26;101904.66;1620135;88;21167;-69
2022/03/10 07:47:22;;;;;;;7.12;3.90;;;;;;;-2.65;43.12;101917.89;1640778;86;21083;-66
2022/03/10 07:49:51;;;;;;;7.30;4.08;;;;;;;-2.60;42.87;101905.22;1619446;87;21020;-67
2022/03/10 07:52:20;;;;;;;6.40;3.50;;;;;;;-2.53;43.02;101905.48;1637669;87;21082;-67
2022/03/10 07:54:46;;;;;;;7.55;3.87;;;;;;;-2.43;41.85;101894.57;1643730;84;21133;-68
2022/03/10 07:57:13;;;;;;;8.35;3.98;;;;;;;-2.36;41.69;101900.89;1611563;87;21272;-67
2022/03/10 07:59:40;;;;;;;6.83;3.52;;;;;;;-2.26;41.36;101897.78;1637920;86;21588;-67
2022/03/10 08:02:07;;;;;;;6.55;3.62;;;;;;;-2.20;40.81;101898.53;1645003;84;21513;-68
2022/03/10 08:04:34;;;;;;;6.75;3.37;;;;;;;-2.15;40.45;101896.79;1637540;86;21127;-68
2022/03/10 08:07:02;;;;;;;7.53;4.08;;;;;;;-2.15;40.01;101902.03;1635605;87;21156;-68
2022/03/10 08:09:29;;;;;;;7.53;3.67;;;;;;;-2.14;40.30;101901.05;1651592;86;21251;-67
2022/03/10 08:11:56;;;;;;;7.50;3.87;;;;;;;-2.08;40.26;101906.22;1648707;84;21459;-66
2022/03/10 08:14:23;;;;;;;7.67;4.15;;;;;;;-2.03;39.78;101906.15;1648862;86;21070;-66
2022/03/10 08:16:50;;;;;;;7.20;3.83;;;;;;;-2.07;40.37;101901.31;1647515;84;21212;-68
2022/03/10 08:19:18;;;;;;;7.03;3.47;;;;;;;-2.10;40.74;101897.70;1647605;84;21566;-68
2022/03/10 08:21:47;;;;;;;8.48;4.35;;;;;;;-2.18;40.73;101892.66;1646732;84;21252;-67
2022/03/10 08:24:15;;;;;;;6.55;4.15;;;;;;;-2.20;40.85;101909.00;1647311;85;21050;-66
2022/03/10 08:26:42;;;;;;;7.50;4.35;;;;;;;-2.13;40.32;101907.47;1647025;84;21621;-67
2022/03/10 08:29:09;;;;;;;6.62;4.37;;;;;;;-2.07;40.29;101899.55;1648140;84;21060;-68
2022/03/10 08:31:36;;;;;;;6.33;3.67;;;;;;;-2.13;40.21;101897.00;1646301;84;21514;-68
2022/03/10 08:34:03;;;;;;;8.80;3.62;;;;;;;-2.05;40.36;101902.02;1644547;85;21910;-68
2022/03/10 08:36:30;;;;;;;8.45;4.30;;;;;;;-1.97;39.94;101902.97;1635586;87;21482;-68
2022/03/10 08:38:59;;;;;;;6.03;3.17;;;;;;;-1.91;39.59;101904.17;1651361;86;21154;-68
2022/03/10 08:41:26;;;;;;;6.72;3.65;;;;;;;-1.87;39.57;101905.56;1666510;85;21057;-68
2022/03/10 08:43:53;;;;;;;6.85;3.67;;;;;;;-1.81;40.02;101898.45;1667879;85;21082;-68
2022/03/10 08:46:19;;;;;;;5.90;3.25;;;;;;;-1.71;40.00;101901.86;1668142;85;21228;-66
2022/03/10 08:48:46;;;;;;;8.73;4.53;;;;;;;-1.66;39.35;101903.55;1667955;85;21023;-67
2022/03/10 08:51:14;;;;;;;7.37;3.80;;;;;;;-1.74;39.02;101889.54;1667777;85;33492;-68
2022/03/10 08:53:42;;;;;;;6.90;3.70;;;;;;;-1.79;39.77;101914.83;1668151;85;21451;-67
2022/03/10 08:56:09;;;;;;;6.50;3.40;;;;;;;-1.79;39.77;101914.83;1667876;86;21114;-68
2022/03/10 08:58:36;;;;;;;6.35;3.50;;;;;;;-1.69;39.26;101897.77;1667904;85;21811;-69
2022/03/10 09:01:03;;;;;;;7.28;3.45;;;;;;;-1.69;39.26;101897.77;1667890;85;21078;-67
2022/03/10 09:03:30;;;;;;;6.65;3.42;;;;;;;-1.59;39.21;101922.63;1668062;85;20984;-66
2022/03/10 09:05:57;;;;;;;5.15;2.70;;;;;;;-1.59;38.70;101922.63;1667864;85;21146;-69
2022/03/10 09:08:26;;;;;;;5.30;2.92;;;;;;;-1.58;37.39;101913.80;1641907;86;21039;-67
2022/03/10 09:10:54;;;;;;;6.80;4.10;;;;;;;-1.64;38.09;101904.91;1640712;86;21031;-68
2022/03/10 09:13:25;;;;;;;6.42;3.52;;;;;;;-1.61;38.43;101904.91;1640625;86;21070;-68
2022/03/10 09:15:56;;;;;;;7.53;3.90;;;;;;;-1.49;38.92;101886.73;1641187;86;21622;-69
2022/03/10 09:18:20;;;;;;;6.95;3.60;;;;;;;-1.36;39.19;101905.56;1640286;86;21209;-68
2022/03/10 09:20:47;;;;;;;6.72;3.55;;;;;;;-1.20;38.18;101901.83;1640684;87;21450;-68
2022/03/10 09:23:14;;;;;;;6.15;3.17;;;;;;;-1.21;37.36;101900.19;1642196;86;21932;-67
2022/03/10 09:25:41;;;;;;;6.75;3.42;;;;;;;-1.32;36.25;101893.81;1648519;84;20991;-67
2022/03/10 09:28:10;;;;;;;6.72;4.10;;;;;;;-1.53;36.15;101905.84;1647406;84;21118;-67
2022/03/10 09:30:38;;;;;;;5.67;2.60;;;;;;;-1.61;35.59;101913.62;1650275;84;21674;-67
2022/03/10 09:33:08;;;;;;;3.95;2.22;;;;;;;-1.55;35.41;101913.50;1648342;84;21094;-68
2022/03/10 09:35:35;;;;;;;7.00;3.10;;;;;;;-1.59;35.36;101899.05;1650688;84;21153;-64
2022/03/10 09:38:02;;;;;;;6.37;3.30;;;;;;;-1.72;35.63;101898.06;1647173;84;21071;-68
2022/03/10 09:40:29;;;;;;;4.97;2.52;;;;;;;-1.74;36.82;101917.86;1647122;84;21007;-67
2022/03/10 09:43:14;;;;;;;7.62;3.02;;;;;;;-1.72;35.44;101910.67;1647092;84;21038;-66
2022/03/10 09:45:41;;;;;;;5.65;2.75;;;;;;;-1.62;36.32;101904.58;1647348;84;21051;-67
2022/03/10 09:48:08;;;;;;;6.78;3.00;;;;;;;-1.55;36.16;101901.71;1649212;84;21809;-68
2022/03/10 09:50:35;;;;;;;6.10;3.27;;;;;;;-1.55;36.16;101901.71;1645634;85;21027;-67
2022/03/10 09:53:02;;;;;;;5.17;2.92;;;;;;;-1.49;36.52;101892.79;1647130;86;21610;-65
2022/03/10 09:55:29;;;;;;;5.87;3.58;;;;;;;-1.37;35.75;101907.03;1654745;84;21731;-67
2022/03/10 09:58:13;;;;;;;5.17;2.90;;;;;;;-1.37;35.75;101907.03;1648147;84;21118;-67
2022/03/10 10:00:41;;;;;;;5.60;2.85;;;;;;;-1.35;36.04;101895.90;1649478;84;21077;-66
2022/03/10 10:03:08;;;;;;;5.85;2.90;;;;;;;-1.32;35.69;101888.56;1662356;84;20964;-67
2022/03/10 10:05:40;;;;;;;5.50;3.02;;;;;;;-1.27;35.44;101897.33;1640708;85;20999;-68
2022/03/10 10:08:14;;;;;;;5.55;3.30;;;;;;;-1.26;34.89;101894.54;1648305;84;21115;-66
2022/03/10 10:11:39;;;;;;;6.10;3.08;;;;;;;-1.24;35.51;101889.98;1650762;84;21533;-66
2022/03/10 10:15:20;;;;;;;5.50;2.92;;;;;;;-1.16;35.79;101885.31;1651531;86;21110;-67
2022/03/10 10:18:08;;;;;;;5.30;3.05;;;;;;;-0.99;35.89;101881.91;1647110;84;21039;-65
2022/03/10 10:20:54;;;;;;;4.83;2.98;;;;;;;-0.98;34.62;101878.30;1647677;86;21197;-66
2022/03/10 10:23:40;;;;;;;5.78;2.60;;;;;;;-0.98;34.62;101878.30;1647223;84;21165;-66
2022/03/10 10:26:28;;;;;;;5.90;3.02;;;;;;;-0.91;34.94;101883.78;1648758;84;20991;-66
2022/03/10 10:29:15;;;;;;;6.22;2.67;;;;;;;-0.91;34.94;101883.78;1645484;84;21587;-66
2022/03/10 10:32:01;;;;;;;7.00;3.20;;;;;;;-0.93;34.62;101879.16;1612032;87;21018;-66
2022/03/10 10:35:10;;;;;;;5.72;2.75;;;;;;;-1.04;35.56;101879.39;1638960;86;21075;-67
2022/03/10 10:37:42;;;;;;;6.30;3.10;;;;;;;-1.03;35.55;101874.47;1658169;85;21551;-67
2022/03/10 10:40:10;;;;;;;4.67;2.40;;;;;;;-0.87;35.76;101871.19;1668047;85;20988;-66
2022/03/10 10:42:39;;;;;;;4.62;2.83;;;;;;;-0.79;34.99;101892.23;1640942;87;21249;-67
2022/03/10 10:45:32;;;;;;;5.97;2.80;;;;;;;-0.73;34.78;101889.02;1640947;86;21041;-67
2022/03/10 10:48:08;;;;;;;5.33;2.55;;;;;;;-0.74;34.62;101880.33;1642208;86;21034;-67
2022/03/10 10:50:40;;;;;;;5.08;2.50;;;;;;;-0.76;34.23;101880.99;1655233;84;21078;-66
2022/03/10 10:53:08;;;;;;;5.25;2.60;;;;;;;-0.80;34.26;101875.68;1647563;84;21038;-68
2022/03/10 10:55:41;;;;;;;4.03;2.40;;;;;;;-0.83;34.17;101887.78;1639903;86;21937;-67
2022/03/10 10:58:10;;;;;;;5.70;2.70;;;;;;;-0.87;35.19;101891.69;1648709;85;20987;-68
2022/03/10 11:00:49;;;;;;;4.90;2.55;;;;;;;-0.87;34.72;101887.75;1647718;84;21040;-67
2022/03/10 11:03:36;;;;;;;5.83;3.08;;;;;;;-0.89;34.23;101884.93;1647662;85;21926;-68
2022/03/10 11:06:02;;;;;;;5.83;3.30;;;;;;;-0.92;34.93;101886.08;1649341;85;21073;-65
2022/03/10 11:08:29;;;;;;;5.37;3.00;;;;;;;-0.91;35.18;101880.34;1648046;86;21231;-67
2022/03/10 11:10:58;;;;;;;6.95;2.70;;;;;;;-0.86;35.84;101873.65;1647414;84;21149;-67
2022/03/10 11:13:28;;;;;;;8.68;3.00;;;;;;;-0.73;34.83;101885.91;1648670;84;21078;-67
2022/03/10 11:15:55;;;;;;;7.15;2.80;;;;;;;-0.69;34.27;101882.53;1647525;84;21081;-68
2022/03/10 11:18:24;;;;;;;6.50;2.98;;;;;;;-0.71;34.09;101872.66;1648798;84;21198;-67
2022/03/10 11:20:59;;;;;;;4.17;2.25;;;;;;;-0.72;34.04;101863.15;1647308;86;21291;-67
2022/03/10 11:23:55;;;;;;;5.45;2.77;;;;;;;-0.74;33.30;101884.27;1644167;84;21157;-69
2022/03/10 11:26:32;;;;;;;4.80;2.35;;;;;;;-0.89;32.73;101866.57;1648193;84;21085;-69
2022/03/10 11:29:01;;;;;;;3.20;1.80;;;;;;;-0.96;33.41;101884.70;1647895;85;21043;-68
2022/03/10 11:31:29;;;;;;;4.83;2.62;;;;;;;-0.98;33.83;101861.27;1650121;84;21109;-67
2022/03/10 11:33:58;;;;;;;5.67;2.92;;;;;;;-0.98;34.50;101869.62;1644741;85;20983;-68
2022/03/10 11:36:27;;;;;;;5.95;2.90;;;;;;;-0.93;34.24;101867.84;1649813;85;21529;-67